Light Drizzle Current Weather (METAR) For Amsterdam Schiphol Airport

All times on the weather descriptions are local

Observed at 12:55 - (19 mins ago)

Light Drizzle

8°C

Light Drizzle
Clouds: Few Clouds at 500ft, Broken Clouds at 700ft, Overcast at 900ft
Wind: 180° at 13 knots
Visibility: 3,500m
QNH: 1012
Dew Point: 7°C
Runways with a headwind: Runway 24, Runways 18L/C/R
Runway 09 - 27 has a direct crosswind

Sunrise Today: 06:22
Sunset Today: 19:09

Forecast Weather (TAF) For Amsterdam Schiphol Airport

Issued at 01:00 - (2 days 11 hrs ago)


Runways with a headwind: Unable to determine, wind is clam

Forecast valid until 01:00 on Tuesday

METAR/TAF RAW METAR / TAF

EHAM 281155Z 18013KT 3500 -DZ FEW005 BKN007 OVC009 08/07 Q1012 TEMPO 5000

Weather Widget

Put weather from any of our airports on your website with our weather widget.

Find Another Search

Airport Search


Please Wait Please Wait - Loading
Close
Close

Login

Username:

Password:

Remember Me:

Remember me on this computer

Forgotten your password? Get a reset password sent to your registered e-mail address

Close

User Private Message

Subject:

Message: